Terminal Aerodrome Forecast
Issued by NWS Newport/Morehead City, NC

Home | Current Version | Previous Version | Graphics & Text | Print | Product List | Glossary On
Versions: 1 2 3 4 5 6 7 8 9 10 11 12 13 14 15 16 17 18
000
FTUS42 KMHX 240542
TAFEWN
TAF
KEWN 240542Z 2406/2506 04012KT P6SM OVC110
     FM241200 02010KT P6SM OVC035
     FM241500 02008KT 3SM -SNPL OVC010
     FM241800 02006KT 2SM -SN BR OVC003
     FM242100 01006KT 2SM -FZRA BR OVC003
     FM250500 35005KT 4SM BR OVC005=

USA.gov is the U.S. government's official web portal to all federal, state and local government web resources and services.